Time;durP1;ratioP1;P1;durP2;ratioP2;P2;SDS_P1;SDS_P2;PMS_P1;PMS_P2;Temp;Humidity;BMP_temperature;BMP_pressure;BME280_temperature;BME280_humidity;BME280_pressure;Samples;Min_cycle;Max_cycle;Signal;HPM_P1;HPM_P2
2022/11/16 00:01:31;;;;;;;5.17;4.70;;;15.20;86.50;;;-142.21;100.00;112049.66;5073632;28;20455;-73
2022/11/16 00:04:01;;;;;;;5.63;4.80;;;15.20;86.60;;;-142.21;100.00;112049.66;5073375;28;20502;-72
2022/11/16 00:06:29;;;;;;;9.13;4.43;;;15.20;86.50;;;-142.21;100.00;112049.66;5073250;28;20531;-72
2022/11/16 00:11:45;;;;;;;5.70;4.50;;;15.20;86.70;;;-142.21;100.00;112049.66;5067073;28;20418;-72
2022/11/16 00:14:12;;;;;;;5.83;4.50;;;15.20;86.70;;;-142.21;100.00;112049.66;5074107;28;20871;-72
2022/11/16 00:16:41;;;;;;;4.83;4.33;;;15.10;86.70;;;-142.21;100.00;112049.66;5072639;28;20466;-72
2022/11/16 00:19:10;;;;;;;6.97;4.93;;;15.10;86.70;;;-142.21;100.00;112049.66;5072635;28;20487;-72
2022/11/16 00:21:37;;;;;;;5.47;4.83;;;15.10;86.70;;;-142.21;100.00;112049.66;5072594;28;20482;-72
2022/11/16 00:24:05;;;;;;;7.23;4.80;;;15.20;86.70;;;-142.21;100.00;112049.66;5073395;28;20574;-73
2022/11/16 00:26:35;;;;;;;5.50;4.90;;;15.10;86.70;;;-142.21;100.00;112049.66;5072552;28;20478;-72
2022/11/16 00:29:02;;;;;;;5.70;5.20;;;15.10;86.80;;;-142.21;100.00;112049.66;5073774;28;20443;-72
2022/11/16 00:31:29;;;;;;;6.63;5.07;;;15.10;86.90;;;-142.21;100.00;112049.66;5073168;28;20950;-72
2022/11/16 00:33:57;;;;;;;9.77;5.30;;;15.10;86.90;;;-142.21;100.00;112049.66;5072232;28;20466;-72
2022/11/16 00:36:24;;;;;;;6.13;4.90;;;15.10;86.90;;;-142.21;100.00;112049.66;5072594;28;20449;-72
2022/11/16 00:38:53;;;;;;;6.23;5.23;;;15.10;86.80;;;-142.21;100.00;112049.66;5073358;28;20926;-72
2022/11/16 00:41:20;;;;;;;9.17;6.03;;;15.10;86.80;;;-142.21;100.00;112049.66;5072859;28;20440;-72
2022/11/16 00:43:47;;;;;;;7.07;6.30;;;15.10;87.10;;;-142.21;100.00;112049.66;5073110;28;20489;-72
2022/11/16 00:46:15;;;;;;;7.77;6.10;;;15.00;87.40;;;-142.21;100.00;112049.66;5073591;28;20444;-71
2022/11/16 00:48:42;;;;;;;7.37;5.77;;;15.00;87.40;;;-142.21;100.00;112049.66;5072350;28;20436;-71
2022/11/16 00:51:10;;;;;;;6.23;5.60;;;15.00;87.40;;;-142.21;100.00;112049.66;5072850;28;20447;-71
2022/11/16 00:53:38;;;;;;;7.13;5.47;;;15.10;87.50;;;-142.21;100.00;112049.66;5072373;28;20446;-72
2022/11/16 00:56:06;;;;;;;7.50;5.43;;;15.10;88.20;;;-142.21;100.00;112049.66;5072827;28;20840;-72
2022/11/16 00:58:33;;;;;;;7.80;6.03;;;15.10;87.40;;;-142.21;100.00;112049.66;5072601;28;20500;-71
2022/11/16 01:01:05;;;;;;;9.03;6.20;;;15.10;87.40;;;-142.21;100.00;112049.66;5073038;28;20804;-72
2022/11/16 01:03:32;;;;;;;6.60;5.47;;;15.10;87.50;;;-142.21;100.00;112049.66;5068105;28;20444;-72
2022/11/16 01:06:03;;;;;;;6.47;5.37;;;15.10;87.30;;;-142.21;100.00;112049.66;5053597;28;20458;-72
2022/11/16 01:08:32;;;;;;;7.50;6.80;;;15.10;87.40;;;-142.21;100.00;112049.66;5072287;28;20894;-72
2022/11/16 01:12:07;;;;;;;9.30;7.03;;;15.10;87.50;;;-142.21;100.00;112049.66;5072557;28;20466;-72
2022/11/16 01:13:46;;;;;;;6.77;6.07;;;15.10;87.40;;;-142.21;100.00;112049.66;5067348;28;20447;-72
2022/11/16 01:16:15;;;;;;;6.73;5.83;;;15.10;87.40;;;-142.21;100.00;112049.66;5071853;28;20479;-72
2022/11/16 01:18:42;;;;;;;7.13;6.43;;;15.10;87.40;;;-142.21;100.00;112049.66;5072090;28;20781;-73
2022/11/16 01:21:09;;;;;;;8.93;7.10;;;15.10;87.50;;;-142.21;100.00;112049.66;5071844;28;20487;-72
2022/11/16 01:23:38;;;;;;;6.87;6.03;;;15.10;87.50;;;-142.21;100.00;112049.66;5071561;28;20932;-72
2022/11/16 01:26:06;;;;;;;6.87;6.27;;;15.10;87.80;;;-142.21;100.00;112049.66;5072001;28;20450;-72
2022/11/16 01:28:33;;;;;;;7.30;5.93;;;15.00;87.50;;;-142.21;100.00;112049.66;5072122;28;20454;-70
2022/11/16 01:31:00;;;;;;;7.83;6.27;;;15.10;87.40;;;-142.21;100.00;112049.66;5072494;28;21004;-72
2022/11/16 01:33:28;;;;;;;7.30;6.30;;;15.00;87.50;;;-142.21;100.00;112049.66;5071733;28;20969;-72
2022/11/16 01:35:55;;;;;;;6.73;5.80;;;15.00;87.70;;;-142.21;100.00;112049.66;5072178;28;20449;-72
2022/11/16 01:38:22;;;;;;;9.60;6.27;;;15.00;87.70;;;-142.21;100.00;112049.66;5072057;28;20443;-72
2022/11/16 01:40:51;;;;;;;8.07;6.17;;;15.00;87.70;;;-142.21;100.00;112049.66;5072148;28;20771;-72
2022/11/16 01:43:22;;;;;;;6.87;6.00;;;14.90;87.90;;;-142.21;100.00;112049.66;5072130;28;20449;-71
2022/11/16 01:45:50;;;;;;;7.27;6.57;;;14.90;88.20;;;-142.21;100.00;112049.66;5072037;28;21072;-72
2022/11/16 01:48:22;;;;;;;7.53;6.60;;;14.80;88.40;;;-142.21;100.00;112049.66;5072351;28;20542;-73
2022/11/16 01:50:51;;;;;;;6.30;5.70;;;14.80;88.60;;;-142.21;100.00;112049.66;5042437;28;20468;-72
2022/11/16 01:53:18;;;;;;;7.87;6.43;;;14.70;88.70;;;-142.21;100.00;112049.66;5065142;28;20526;-72
2022/11/16 01:55:48;;;;;;;7.53;6.80;;;14.80;88.90;;;-142.21;100.00;112049.66;5071613;28;20439;-72
2022/11/16 01:58:22;;;;;;;6.40;5.63;;;14.80;88.60;;;-142.21;100.00;112049.66;5037812;28;20466;-72
2022/11/16 02:00:49;;;;;;;7.00;6.30;;;14.90;88.60;;;-142.21;100.00;112049.66;5072285;28;20442;-72
2022/11/16 02:03:18;;;;;;;8.30;6.53;;;14.90;88.50;;;-142.21;100.00;112049.66;5071887;28;20450;-72
2022/11/16 02:06:08;;;;;;;7.80;6.33;;;14.90;88.30;;;-142.21;100.00;112049.66;5071014;28;20540;-72
2022/11/16 02:12:06;;;;;;;7.00;6.30;;;15.00;88.20;;;-142.21;100.00;112049.66;5067088;28;20455;-72
2022/11/16 02:15:03;;;;;;;8.27;6.93;;;14.90;88.20;;;-142.21;100.00;112049.66;5060800;28;20436;-72
2022/11/16 02:17:47;;;;;;;8.83;7.80;;;14.90;88.20;;;-142.21;100.00;112049.66;5071043;28;20485;-72
2022/11/16 02:20:51;;;;;;;9.73;7.10;;;14.90;88.30;;;-142.21;100.00;112049.66;5071688;28;20440;-72
2022/11/16 02:24:05;;;;;;;10.37;8.33;;;14.90;88.70;;;-142.21;100.00;112049.66;5071650;28;20530;-72
2022/11/16 02:26:56;;;;;;;10.03;8.53;;;14.90;88.80;;;-142.21;100.00;112049.66;5057819;28;20808;-72
2022/11/16 02:29:33;;;;;;;12.47;8.37;;;14.90;88.70;;;-142.21;100.00;112049.66;5055784;28;20439;-71
2022/11/16 02:32:07;;;;;;;11.23;8.40;;;14.80;88.70;;;-142.21;100.00;112049.66;5056608;28;20522;-72
2022/11/16 02:34:42;;;;;;;12.53;9.63;;;14.90;88.80;;;-142.21;100.00;112049.66;5060557;28;20435;-72
2022/11/16 02:37:14;;;;;;;12.27;9.23;;;14.90;88.70;;;-142.21;100.00;112049.66;5071558;28;20461;-72
2022/11/16 02:39:46;;;;;;;10.97;9.73;;;14.90;89.10;;;-142.21;100.00;112049.66;5071392;28;20432;-72
2022/11/16 02:42:21;;;;;;;12.97;10.03;;;14.80;88.90;;;-142.21;100.00;112049.66;5071304;28;20446;-71
2022/11/16 02:44:55;;;;;;;12.83;10.03;;;14.80;89.10;;;-142.21;100.00;112049.66;5070433;28;20463;-71
2022/11/16 02:47:28;;;;;;;12.70;10.10;;;14.80;89.20;;;-142.21;100.00;112049.66;5071305;28;20431;-72
2022/11/16 02:50:03;;;;;;;11.90;9.97;;;14.80;89.30;;;-142.21;100.00;112049.66;5071518;28;20443;-73
2022/11/16 02:52:30;;;;;;;13.03;11.33;;;14.80;89.50;;;-142.21;100.00;112049.66;5070948;28;20473;-72
2022/11/16 02:54:57;;;;;;;13.30;10.27;;;14.70;89.70;;;-142.21;100.00;112049.66;5071529;28;20450;-72
2022/11/16 02:57:49;;;;;;;11.70;10.50;;;14.60;90.10;;;-142.21;100.00;112049.66;5071716;28;20466;-72
2022/11/16 03:00:24;;;;;;;10.17;9.07;;;14.50;90.00;;;-142.21;100.00;112049.66;5070911;28;20455;-72
2022/11/16 03:03:10;;;;;;;11.37;8.50;;;14.40;90.20;;;-142.21;100.00;112049.66;5070767;28;20816;-72
2022/11/16 03:05:44;;;;;;;9.67;8.77;;;14.50;90.30;;;-142.21;100.00;112049.66;5070793;28;20467;-72
2022/11/16 03:08:20;;;;;;;9.47;8.17;;;14.50;90.20;;;-142.21;100.00;112049.66;5071556;28;20431;-72
2022/11/16 03:13:40;;;;;;;11.57;8.40;;;14.60;90.10;;;-142.21;100.00;112049.66;5070753;28;20423;-72
2022/11/16 03:16:16;;;;;;;8.87;7.97;;;14.50;90.00;;;-142.21;100.00;112049.66;5071511;28;20448;-72
2022/11/16 03:18:47;;;;;;;7.63;6.93;;;14.50;90.00;;;-142.21;100.00;112049.66;5070897;28;20442;-73
2022/11/16 03:21:23;;;;;;;11.53;7.63;;;14.50;90.10;;;-142.21;100.00;112049.66;5070742;28;20993;-72
2022/11/16 03:23:51;;;;;;;8.50;7.63;;;14.50;90.20;;;-142.21;100.00;112049.66;5070614;28;20959;-72
2022/11/16 03:26:26;;;;;;;8.30;7.50;;;14.40;90.20;;;-142.21;100.00;112049.66;5071470;28;20479;-72
2022/11/16 03:29:02;;;;;;;8.23;6.90;;;14.40;90.20;;;-142.21;100.00;112049.66;5071629;28;20457;-72
2022/11/16 03:31:55;;;;;;;7.83;7.03;;;14.40;90.20;;;-142.21;100.00;112049.66;5073968;28;20435;-72
2022/11/16 03:34:31;;;;;;;8.37;7.07;;;14.50;90.30;;;-142.21;100.00;112049.66;5074614;28;20448;-72
2022/11/16 03:37:02;;;;;;;9.30;7.17;;;14.40;90.20;;;-142.21;100.00;112049.66;5075170;28;20427;-73
2022/11/16 03:39:34;;;;;;;8.77;7.03;;;14.40;90.20;;;-142.21;100.00;112049.66;5073941;28;20423;-73
2022/11/16 03:42:08;;;;;;;7.67;6.93;;;14.40;90.30;;;-142.21;100.00;112049.66;5074997;28;20449;-72
2022/11/16 03:44:37;;;;;;;8.60;7.03;;;14.50;90.20;;;-142.21;100.00;112049.66;5073979;28;20562;-73
2022/11/16 03:47:05;;;;;;;7.43;6.63;;;14.50;90.20;;;-142.21;100.00;112049.66;5074694;28;20518;-73
2022/11/16 03:49:32;;;;;;;7.40;6.70;;;14.50;90.10;;;-142.21;100.00;112049.66;5073658;28;20435;-72
2022/11/16 03:52:00;;;;;;;8.03;6.47;;;14.50;90.50;;;-142.21;100.00;112049.66;5074408;28;20455;-72
2022/11/16 03:54:27;;;;;;;7.63;6.40;;;14.60;90.20;;;-142.21;100.00;112049.66;5074334;28;20451;-72
2022/11/16 03:56:54;;;;;;;7.50;6.20;;;14.50;90.00;;;-142.21;100.00;112049.66;5073897;28;20444;-70
2022/11/16 03:59:21;;;;;;;6.13;5.53;;;14.60;90.00;;;-142.21;100.00;112049.66;5073904;28;20447;-73
2022/11/16 04:01:48;;;;;;;6.63;5.83;;;14.60;90.00;;;-142.21;100.00;112049.66;5073703;28;20435;-72
2022/11/16 04:26:13;;;;;;;5.70;4.53;;;14.70;89.40;;;-142.21;100.00;112049.66;5073851;28;20843;-72
2022/11/16 04:28:40;;;;;;;5.40;4.83;;;14.80;89.40;;;-142.21;100.00;112049.66;5072925;28;20794;-72
2022/11/16 04:39:23;;;;;;;5.27;4.13;;;14.80;89.20;;;-142.21;100.00;112049.66;5073344;28;20438;-72
2022/11/16 04:47:33;;;;;;;5.37;4.47;;;14.80;88.90;;;-142.21;100.00;112049.66;5059023;28;20440;-72
2022/11/16 04:50:00;;;;;;;5.50;4.50;;;14.80;88.90;;;-142.21;100.00;112049.66;5072106;28;20539;-72
2022/11/16 04:52:28;;;;;;;4.13;3.73;;;14.80;89.00;;;-142.21;100.00;112049.66;5072878;28;20505;-72
2022/11/16 04:54:56;;;;;;;4.17;3.77;;;14.80;89.10;;;-142.21;100.00;112049.66;5072737;28;20435;-72
2022/11/16 04:57:23;;;;;;;4.73;4.23;;;14.80;89.10;;;-142.21;100.00;112049.66;5073216;28;20449;-72
2022/11/16 04:59:50;;;;;;;3.60;3.27;;;14.80;88.90;;;-142.21;100.00;112049.66;5071757;28;20530;-72
2022/11/16 05:02:17;;;;;;;4.00;3.53;;;14.80;89.20;;;-142.21;100.00;112049.66;5071866;28;20545;-72
2022/11/16 05:04:45;;;;;;;4.03;3.60;;;14.80;89.50;;;-142.21;100.00;112049.66;5071910;28;21007;-72
2022/11/16 05:07:14;;;;;;;5.60;4.53;;;14.80;89.60;;;-142.21;100.00;112049.66;5073250;28;20473;-72
2022/11/16 05:09:47;;;;;;;4.70;3.40;;;14.80;89.60;;;-142.21;100.00;112049.66;5072179;28;20517;-80
2022/11/16 05:12:20;;;;;;;3.60;3.30;;;14.80;89.30;;;-142.21;100.00;112049.66;5073330;28;20440;-79
2022/11/16 05:14:48;;;;;;;3.70;3.40;;;14.90;89.40;;;-142.21;100.00;112049.66;5072938;28;20432;-81
2022/11/16 05:17:19;;;;;;;4.57;4.17;;;14.80;89.30;;;-142.21;100.00;112049.66;5072690;28;20443;-80
2022/11/16 05:22:30;;;;;;;4.27;3.87;;;14.80;89.80;;;-142.21;100.00;112049.66;5073031;28;20478;-79
2022/11/16 05:25:00;;;;;;;5.17;4.50;;;14.60;90.20;;;-142.21;100.00;112049.66;5072645;28;20914;-81
2022/11/16 05:27:29;;;;;;;5.53;4.53;;;14.60;90.60;;;-142.21;100.00;112049.66;5072477;28;20444;-80
2022/11/16 05:29:56;;;;;;;6.37;4.80;;;14.50;90.70;;;-142.21;100.00;112049.66;5072885;28;20458;-79
2022/11/16 05:32:26;;;;;;;6.23;5.63;;;14.50;90.80;;;-142.21;100.00;112049.66;5072723;28;20551;-80
2022/11/16 05:34:54;;;;;;;6.43;5.83;;;14.50;91.00;;;-142.21;100.00;112049.66;5072642;28;20781;-80
2022/11/16 05:37:25;;;;;;;7.13;6.00;;;14.50;91.00;;;-142.21;100.00;112049.66;5073172;28;20479;-80
2022/11/16 05:39:53;;;;;;;9.77;6.13;;;14.50;90.90;;;-142.21;100.00;112049.66;5072582;28;20922;-81
2022/11/16 05:42:21;;;;;;;7.33;6.60;;;14.50;91.00;;;-142.21;100.00;112049.66;5072560;28;20454;-80
2022/11/16 05:44:49;;;;;;;9.00;7.20;;;14.40;91.10;;;-142.21;100.00;112049.66;5072296;28;20535;-80
2022/11/16 05:47:16;;;;;;;8.67;6.90;;;14.40;91.20;;;-142.21;100.00;112049.66;5071939;28;20488;-80
2022/11/16 05:49:43;;;;;;;8.00;7.20;;;14.30;91.20;;;-142.21;100.00;112049.66;5072085;28;20518;-80
2022/11/16 05:52:11;;;;;;;7.60;6.90;;;14.30;91.30;;;-142.21;100.00;112049.66;5072014;28;20537;-80
2022/11/16 05:54:38;;;;;;;8.80;7.90;;;14.40;91.30;;;-142.21;100.00;112049.66;5072237;28;20447;-80
2022/11/16 05:57:05;;;;;;;7.70;6.90;;;14.40;91.20;;;-142.21;100.00;112049.66;5052609;28;20476;-80
2022/11/16 05:59:34;;;;;;;8.17;7.13;;;14.40;91.10;;;-142.21;100.00;112049.66;5052949;28;20854;-80
2022/11/16 06:02:02;;;;;;;10.17;7.67;;;14.50;91.10;;;-142.21;100.00;112049.66;5055390;28;20525;-79
2022/11/16 06:04:29;;;;;;;7.83;6.83;;;14.50;90.90;;;-142.21;100.00;112049.66;5072354;28;20443;-80
2022/11/16 06:06:57;;;;;;;8.40;6.90;;;14.50;91.00;;;-142.21;100.00;112049.66;5071235;28;20540;-80
2022/11/16 06:09:24;;;;;;;8.07;7.07;;;14.50;91.00;;;-142.21;100.00;112049.66;5072205;28;20518;-80
2022/11/16 06:11:51;;;;;;;9.40;7.13;;;14.40;91.00;;;-142.21;100.00;112049.66;5071592;28;20649;-70
2022/11/16 06:14:18;;;;;;;10.33;9.17;;;14.40;91.30;;;-142.21;100.00;112049.66;5071347;28;20807;-71
2022/11/16 06:16:46;;;;;;;9.93;8.37;;;14.30;91.40;;;-142.21;100.00;112049.66;5071532;28;20935;-71
2022/11/16 06:19:13;;;;;;;9.30;7.20;;;14.30;91.50;;;-142.21;100.00;112049.66;5072078;28;20811;-70
2022/11/16 06:21:40;;;;;;;8.67;7.07;;;14.30;91.40;;;-142.21;100.00;112049.66;5070965;28;20573;-71
2022/11/16 06:24:08;;;;;;;13.60;12.20;;;14.30;91.60;;;-142.21;100.00;112049.66;5071222;28;20443;-71
2022/11/16 06:26:38;;;;;;;9.73;7.73;;;14.30;91.60;;;-142.21;100.00;112049.66;5071660;28;20494;-72
2022/11/16 06:29:05;;;;;;;8.40;7.57;;;14.30;91.60;;;-142.21;100.00;112049.66;5052027;28;20520;-72
2022/11/16 06:31:32;;;;;;;8.37;7.53;;;14.30;91.50;;;-142.21;100.00;112049.66;5055887;28;20443;-72
2022/11/16 06:34:01;;;;;;;8.40;7.17;;;14.30;91.50;;;-142.21;100.00;112049.66;5070916;28;20867;-73
2022/11/16 06:36:30;;;;;;;8.10;7.30;;;14.30;91.60;;;-142.21;100.00;112049.66;5071679;28;20526;-72
2022/11/16 06:39:00;;;;;;;9.33;7.67;;;14.30;91.40;;;-142.21;100.00;112049.66;5071223;28;20466;-72
2022/11/16 06:41:27;;;;;;;8.00;7.13;;;14.40;91.40;;;-142.21;100.00;112049.66;5072609;28;20523;-71
2022/11/16 06:43:54;;;;;;;7.63;6.63;;;14.40;91.10;;;-142.21;100.00;112049.66;5070628;28;21010;-73
2022/11/16 06:46:23;;;;;;;8.30;6.83;;;14.50;91.10;;;-142.21;100.00;112049.66;5071852;28;21073;-72
2022/11/16 06:48:50;;;;;;;8.10;7.10;;;14.50;91.10;;;-142.21;100.00;112049.66;5071289;28;20479;-72
2022/11/16 06:51:19;;;;;;;7.13;6.13;;;14.50;91.00;;;-142.21;100.00;112049.66;5071482;28;20483;-72
2022/11/16 06:53:46;;;;;;;7.67;6.87;;;14.50;90.90;;;-142.21;100.00;112049.66;5070888;28;20448;-73
2022/11/16 06:56:15;;;;;;;7.73;6.23;;;14.50;90.80;;;-142.21;100.00;112049.66;5071610;28;20486;-72
2022/11/16 06:58:42;;;;;;;7.03;6.30;;;14.40;90.90;;;-142.21;100.00;112049.66;5070729;28;20443;-72
2022/11/16 07:01:12;;;;;;;6.87;6.03;;;14.40;90.90;;;-142.21;100.00;112049.66;5070976;28;20541;-72
2022/11/16 07:03:39;;;;;;;6.50;5.37;;;14.50;90.70;;;-142.21;100.00;112049.66;5071882;28;20523;-72
2022/11/16 07:06:08;;;;;;;7.27;6.20;;;14.50;90.70;;;-142.21;100.00;112049.66;5074252;28;20483;-72
2022/11/16 07:08:37;;;;;;;6.53;5.77;;;14.50;90.60;;;-142.21;100.00;112049.66;5074694;28;20475;-72
2022/11/16 07:11:07;;;;;;;5.70;5.03;;;14.50;90.50;;;-142.21;100.00;112049.66;5073827;28;20538;-71
2022/11/16 07:13:36;;;;;;;6.00;5.37;;;14.50;90.50;;;-142.21;100.00;112049.66;5074575;28;20522;-71
2022/11/16 07:16:05;;;;;;;5.67;4.87;;;14.50;90.50;;;-142.21;100.00;112049.66;5074488;28;20923;-73
2022/11/16 07:18:34;;;;;;;6.20;4.97;;;14.50;90.40;;;-142.21;100.00;112049.66;5075203;28;20482;-72
2022/11/16 07:21:06;;;;;;;5.73;4.93;;;14.50;90.30;;;-142.21;100.00;112049.66;5073574;28;20879;-72
2022/11/16 07:23:34;;;;;;;6.20;5.10;;;14.60;90.40;;;-142.21;100.00;112049.66;5074660;28;20431;-72
2022/11/16 07:26:03;;;;;;;6.50;5.47;;;14.60;90.20;;;-142.21;100.00;112049.66;5072496;28;20542;-72
2022/11/16 07:28:31;;;;;;;8.10;4.80;;;14.60;90.30;;;-142.21;100.00;112049.66;5074936;28;20821;-71
2022/11/16 07:31:02;;;;;;;8.10;4.50;;;14.70;90.20;;;-142.21;100.00;112049.66;5074681;28;20792;-72
2022/11/16 07:33:29;;;;;;;5.27;4.27;;;14.70;90.10;;;-142.21;100.00;112049.66;5075047;28;20785;-72
2022/11/16 07:36:02;;;;;;;5.93;4.20;;;14.80;90.00;;;-142.21;100.00;112049.66;5074059;28;20439;-71
2022/11/16 07:38:30;;;;;;;5.73;4.33;;;14.70;90.10;;;-142.21;100.00;112049.66;5074777;28;20464;-72
2022/11/16 07:41:02;;;;;;;5.87;4.53;;;14.70;90.10;;;-142.21;100.00;112049.66;5074042;28;20447;-71
2022/11/16 07:43:30;;;;;;;6.13;4.60;;;14.70;90.20;;;-142.21;100.00;112049.66;5074713;28;20511;-72
2022/11/16 07:46:02;;;;;;;4.43;4.03;;;14.80;90.20;;;-142.21;100.00;112049.66;5074080;28;20915;-72
2022/11/16 07:48:29;;;;;;;5.30;4.27;;;14.90;90.10;;;-142.21;100.00;112049.66;5074761;28;20481;-72
2022/11/16 07:51:01;;;;;;;7.50;5.17;;;14.80;90.00;;;-142.21;100.00;112049.66;5073766;28;20455;-72
2022/11/16 07:53:29;;;;;;;4.37;3.93;;;14.80;90.20;;;-142.21;100.00;112049.66;5074333;28;20550;-72
2022/11/16 07:55:57;;;;;;;4.50;4.00;;;14.80;90.20;;;-142.21;100.00;112049.66;5073322;28;20505;-72
2022/11/16 07:58:27;;;;;;;5.37;4.23;;;14.90;90.20;;;-142.21;100.00;112049.66;5074647;28;20471;-72
2022/11/16 08:00:55;;;;;;;5.33;3.60;;;14.90;90.20;;;-142.21;100.00;112049.66;5073935;28;21026;-72
2022/11/16 08:03:22;;;;;;;3.90;3.60;;;14.90;90.00;;;-142.21;100.00;112049.66;5074451;28;20447;-72
2022/11/16 08:05:58;;;;;;;4.83;3.70;;;15.00;90.00;;;-142.21;100.00;112049.66;5073584;28;20875;-73
2022/11/16 08:08:25;;;;;;;3.57;3.27;;;15.00;90.00;;;-142.21;100.00;112049.66;5074446;28;20489;-71
2022/11/16 08:10:53;;;;;;;4.27;3.83;;;15.10;89.70;;;-142.21;100.00;112049.66;5072438;28;20915;-72
2022/11/16 08:13:20;;;;;;;4.77;3.60;;;15.10;89.80;;;-142.21;100.00;112049.66;5073052;28;20479;-72
2022/11/16 08:15:49;;;;;;;4.37;3.63;;;15.10;89.60;;;-142.21;100.00;112049.66;5073048;28;20531;-72
2022/11/16 08:18:16;;;;;;;5.47;3.50;;;15.10;89.70;;;-142.21;100.00;112049.66;5073880;28;20443;-72
2022/11/16 08:20:44;;;;;;;3.50;2.80;;;15.20;89.60;;;-142.21;100.00;112049.66;5073736;28;20455;-72
2022/11/16 08:23:11;;;;;;;4.83;2.97;;;15.10;88.90;;;-142.21;100.00;112049.66;5074406;28;20428;-72
2022/11/16 08:25:38;;;;;;;3.20;2.80;;;15.20;88.90;;;-142.21;100.00;112049.66;5073878;28;20451;-71
2022/11/16 08:28:06;;;;;;;3.60;2.87;;;15.20;88.60;;;-142.21;100.00;112049.66;5073307;28;21016;-71
2022/11/16 08:30:33;;;;;;;4.60;3.07;;;15.30;88.80;;;-142.21;100.00;112049.66;5073882;28;20591;-71
2022/11/16 08:33:02;;;;;;;2.90;2.70;;;15.30;88.80;;;-142.21;100.00;112049.66;5073390;28;20448;-71
2022/11/16 08:35:29;;;;;;;4.23;3.03;;;15.30;88.50;;;-142.21;100.00;112049.66;5073466;28;20454;-71
2022/11/16 08:37:57;;;;;;;3.67;3.20;;;15.30;88.60;;;-142.21;100.00;112049.66;5072967;28;20775;-70
2022/11/16 08:40:24;;;;;;;5.07;3.13;;;15.40;88.90;;;-142.21;100.00;112049.66;5073870;28;20530;-71
2022/11/16 08:42:55;;;;;;;5.20;2.70;;;15.40;88.50;;;-142.21;100.00;112049.66;5073417;28;20451;-72
2022/11/16 08:45:23;;;;;;;3.87;3.47;;;15.40;88.40;;;-142.21;100.00;112049.66;5072828;28;20474;-72
2022/11/16 08:47:51;;;;;;;5.70;3.13;;;15.50;88.30;;;-142.21;100.00;112049.66;5072743;28;20510;-72
2022/11/16 08:50:19;;;;;;;4.17;3.07;;;15.40;88.30;;;-142.21;100.00;112049.66;5073066;28;20454;-72
2022/11/16 08:52:47;;;;;;;4.33;2.90;;;15.60;88.50;;;-142.21;100.00;112049.66;5072532;28;20459;-71
2022/11/16 08:55:17;;;;;;;3.17;2.67;;;15.70;88.30;;;-142.21;100.00;112049.66;5073495;28;20447;-72
2022/11/16 08:57:44;;;;;;;3.57;2.73;;;15.80;88.60;;;-142.21;100.00;112049.66;5073147;28;20448;-72
2022/11/16 09:00:13;;;;;;;3.17;2.77;;;15.90;87.40;;;-142.21;100.00;112049.66;5073419;28;20443;-72
2022/11/16 09:02:40;;;;;;;3.10;2.63;;;15.70;87.30;;;-142.21;100.00;112049.66;5073027;28;20923;-72
2022/11/16 09:05:10;;;;;;;2.50;2.27;;;15.70;87.60;;;-142.21;100.00;112049.66;5072729;28;20447;-72
2022/11/16 09:07:40;;;;;;;5.73;3.00;;;15.80;87.40;;;-142.21;100.00;112049.66;5073830;28;20463;-71
2022/11/16 09:10:10;;;;;;;3.40;2.80;;;15.80;86.80;;;-142.21;100.00;112049.66;5073840;28;20442;-72
2022/11/16 09:12:38;;;;;;;3.37;2.73;;;15.90;86.30;;;-142.21;100.00;112049.66;5075284;28;20925;-72
2022/11/16 09:15:07;;;;;;;3.87;2.90;;;15.80;86.60;;;-142.21;100.00;112049.66;5073245;28;20504;-73
2022/11/16 09:17:37;;;;;;;4.50;2.80;;;15.90;86.80;;;-142.21;100.00;112049.66;5073487;28;20796;-72
2022/11/16 09:20:06;;;;;;;5.47;2.70;;;15.90;86.70;;;-142.21;100.00;112049.66;5073612;28;20481;-72
2022/11/16 09:22:33;;;;;;;2.73;2.40;;;16.00;86.60;;;-142.21;100.00;112049.66;5037979;28;20479;-72
2022/11/16 09:25:02;;;;;;;2.43;2.23;;;16.00;85.80;;;-142.21;100.00;112049.66;5072338;28;20447;-72
2022/11/16 09:27:30;;;;;;;4.10;2.57;;;16.00;86.50;;;-142.21;100.00;112049.66;5072035;28;20519;-72
2022/11/16 09:29:57;;;;;;;2.83;2.50;;;16.00;86.40;;;-142.21;100.00;112049.66;5072243;28;20854;-72
2022/11/16 09:32:27;;;;;;;3.10;2.40;;;16.00;85.70;;;-142.21;100.00;112049.66;5072714;28;20530;-71
2022/11/16 09:34:55;;;;;;;3.93;3.00;;;16.00;86.10;;;-142.21;100.00;112049.66;5072330;28;20435;-71
2022/11/16 09:37:22;;;;;;;11.33;8.90;;;15.90;86.00;;;-142.21;100.00;112049.66;5072649;28;20458;-72
2022/11/16 09:39:52;;;;;;;5.57;3.67;;;15.70;86.30;;;-142.21;100.00;112049.66;5072269;28;20451;-71
2022/11/16 09:42:44;;;;;;;7.10;5.70;;;15.70;86.30;;;-142.21;100.00;112049.66;5072870;28;20968;-72
2022/11/16 09:45:22;;;;;;;4.60;3.90;;;15.80;86.10;;;-142.21;100.00;112049.66;5072314;28;20527;-72
2022/11/16 09:47:56;;;;;;;4.23;2.13;;;15.70;85.00;;;-142.21;100.00;112049.66;5071544;28;20470;-71
2022/11/16 09:50:37;;;;;;;2.73;2.53;;;15.60;85.20;;;-142.21;100.00;112049.66;5072255;28;20439;-72
2022/11/16 09:53:27;;;;;;;5.53;3.83;;;15.50;84.00;;;-142.21;100.00;112049.66;5071827;28;20446;-72
2022/11/16 09:55:58;;;;;;;2.30;1.90;;;15.40;83.80;;;-142.21;100.00;112049.66;5072126;28;20459;-72
2022/11/16 09:58:34;;;;;;;2.10;1.90;;;15.30;83.80;;;-142.21;100.00;112049.66;5072493;28;20438;-72
2022/11/16 10:01:19;;;;;;;4.83;2.90;;;15.40;83.90;;;-142.21;100.00;112049.66;5071731;28;20434;-72
2022/11/16 10:03:52;;;;;;;8.83;5.00;;;15.50;83.80;;;-142.21;100.00;112049.66;5072247;28;20460;-72
2022/11/16 10:06:27;;;;;;;3.47;2.70;;;15.50;83.30;;;-142.21;100.00;112049.66;5072110;28;21041;-72
2022/11/16 10:08:56;;;;;;;3.93;1.80;;;15.50;82.30;;;-142.21;100.00;112049.66;5071904;28;20423;-73
2022/11/16 10:12:09;;;;;;;2.73;2.50;;;15.50;82.80;;;-142.21;100.00;112049.66;5072430;28;20450;-72
2022/11/16 10:15:14;;;;;;;3.57;2.00;;;15.40;83.20;;;-142.21;100.00;112049.66;5071593;28;20454;-71
2022/11/16 10:18:02;;;;;;;2.87;1.70;;;15.60;83.30;;;-142.21;100.00;112049.66;5071912;28;20819;-71
2022/11/16 10:20:55;;;;;;;2.27;2.07;;;15.80;82.70;;;-142.21;100.00;112049.66;5071734;28;20432;-72
2022/11/16 10:23:42;;;;;;;2.53;1.50;;;15.80;82.50;;;-142.21;100.00;112049.66;5072094;28;20470;-72
2022/11/16 10:26:25;;;;;;;1.70;1.60;;;15.80;82.90;;;-142.21;100.00;112049.66;5071325;28;20434;-72
2022/11/16 10:29:09;;;;;;;4.40;1.37;;;15.80;83.60;;;-142.21;100.00;112049.66;5071410;28;20849;-71
2022/11/16 10:32:00;;;;;;;3.83;1.67;;;16.20;81.60;;;-142.21;100.00;112049.66;5071287;28;20439;-72
2022/11/16 10:34:42;;;;;;;1.87;1.37;;;16.30;79.20;;;-142.21;100.00;112049.66;5071390;28;20435;-72
2022/11/16 10:37:13;;;;;;;2.17;1.50;;;16.50;79.40;;;-142.21;100.00;112049.66;5071379;28;20531;-72
2022/11/16 10:39:41;;;;;;;1.73;1.50;;;16.80;78.20;;;-142.21;99.26;112049.66;5075881;28;20427;-72
2022/11/16 10:42:16;;;;;;;2.23;1.30;;;17.00;77.50;;;-142.21;95.91;112049.66;5075312;28;20447;-72
2022/11/16 10:44:50;;;;;;;4.73;2.97;;;17.00;74.70;;;-142.21;94.82;112049.66;5075841;28;20865;-72
2022/11/16 10:47:26;;;;;;;2.27;1.27;;;17.00;73.90;;;-142.21;95.31;112049.66;5075893;28;20462;-72
2022/11/16 10:49:59;;;;;;;3.73;1.60;;;16.90;74.00;;;-142.21;95.31;112049.66;5075377;28;20802;-71
2022/11/16 10:52:28;;;;;;;2.70;1.53;;;16.80;74.00;;;-142.21;95.37;112049.66;5076168;28;20524;-72
2022/11/16 10:54:55;;;;;;;5.83;2.80;;;16.80;74.10;;;-142.21;97.39;112049.66;5075445;28;20504;-72
2022/11/16 10:57:25;;;;;;;16.77;11.57;;;16.70;75.10;;;-142.21;97.68;112049.66;5075717;28;20509;-72